sensor_id;sensor_type;location;lat;lon;timestamp;temperature;humidity
65559;DHT22;52203;51.998;5.140;2024-02-26T00:01:23;11.87;118.99
65559;DHT22;52203;51.998;5.140;2024-02-26T00:03:48;11.87;118.99
65559;DHT22;52203;51.998;5.140;2024-02-26T00:06:14;11.79;118.99
65559;DHT22;52203;51.998;5.140;2024-02-26T00:08:40;11.81;118.99
65559;DHT22;52203;51.998;5.140;2024-02-26T00:11:05;11.78;118.99
65559;DHT22;52203;51.998;5.140;2024-02-26T00:13:31;11.82;118.99
65559;DHT22;52203;51.998;5.140;2024-02-26T00:15:59;11.79;118.99
65559;DHT22;52203;51.998;5.140;2024-02-26T00:18:25;11.83;118.99
65559;DHT22;52203;51.998;5.140;2024-02-26T00:20:50;11.79;118.99
65559;DHT22;52203;51.998;5.140;2024-02-26T00:23:16;11.74;118.99
65559;DHT22;52203;51.998;5.140;2024-02-26T00:25:41;11.78;118.99
65559;DHT22;52203;51.998;5.140;2024-02-26T00:28:09;11.76;118.99
65559;DHT22;52203;51.998;5.140;2024-02-26T00:30:35;11.78;118.99
65559;DHT22;52203;51.998;5.140;2024-02-26T00:33:01;11.78;118.99
65559;DHT22;52203;51.998;5.140;2024-02-26T00:35:26;11.75;118.99
65559;DHT22;52203;51.998;5.140;2024-02-26T00:37:52;11.77;118.99
65559;DHT22;52203;51.998;5.140;2024-02-26T00:40:18;11.72;118.99
65559;DHT22;52203;51.998;5.140;2024-02-26T00:42:43;11.81;118.99
65559;DHT22;52203;51.998;5.140;2024-02-26T00:45:11;11.73;118.99
65559;DHT22;52203;51.998;5.140;2024-02-26T00:47:37;11.72;118.99
65559;DHT22;52203;51.998;5.140;2024-02-26T00:50:06;11.71;118.99
65559;DHT22;52203;51.998;5.140;2024-02-26T00:52:32;11.64;118.99
65559;DHT22;52203;51.998;5.140;2024-02-26T00:54:57;11.72;118.99
65559;DHT22;52203;51.998;5.140;2024-02-26T00:57:23;11.71;118.99
65559;DHT22;52203;51.998;5.140;2024-02-26T00:59:51;11.66;118.99
65559;DHT22;52203;51.998;5.140;2024-02-26T01:02:17;11.70;118.99
65559;DHT22;52203;51.998;5.140;2024-02-26T01:04:42;11.73;118.99
65559;DHT22;52203;51.998;5.140;2024-02-26T01:07:08;11.71;118.99
65559;DHT22;52203;51.998;5.140;2024-02-26T01:09:42;11.66;118.99
65559;DHT22;52203;51.998;5.140;2024-02-26T01:12:07;11.70;118.99
65559;DHT22;52203;51.998;5.140;2024-02-26T01:14:33;11.66;118.99
65559;DHT22;52203;51.998;5.140;2024-02-26T01:16:59;11.67;118.99
65559;DHT22;52203;51.998;5.140;2024-02-26T01:19:24;11.66;118.99
65559;DHT22;52203;51.998;5.140;2024-02-26T01:21:50;11.69;118.99
65559;DHT22;52203;51.998;5.140;2024-02-26T01:24:15;11.71;118.99
65559;DHT22;52203;51.998;5.140;2024-02-26T01:26:41;11.72;118.99
65559;DHT22;52203;51.998;5.140;2024-02-26T01:29:06;11.68;118.99
65559;DHT22;52203;51.998;5.140;2024-02-26T01:31:32;11.71;118.99
65559;DHT22;52203;51.998;5.140;2024-02-26T01:33:57;11.63;118.99
65559;DHT22;52203;51.998;5.140;2024-02-26T01:36:23;11.66;118.99
65559;DHT22;52203;51.998;5.140;2024-02-26T01:38:48;11.63;118.99
65559;DHT22;52203;51.998;5.140;2024-02-26T01:41:14;11.62;118.99
65559;DHT22;52203;51.998;5.140;2024-02-26T01:43:40;11.69;118.99
65559;DHT22;52203;51.998;5.140;2024-02-26T01:46:07;11.62;118.99
65559;DHT22;52203;51.998;5.140;2024-02-26T01:48:36;11.68;118.99
65559;DHT22;52203;51.998;5.140;2024-02-26T01:51:02;11.69;118.99
65559;DHT22;52203;51.998;5.140;2024-02-26T01:53:30;11.64;118.99
65559;DHT22;52203;51.998;5.140;2024-02-26T01:55:55;11.64;118.99
65559;DHT22;52203;51.998;5.140;2024-02-26T01:58:21;11.60;118.99
65559;DHT22;52203;51.998;5.140;2024-02-26T02:00:49;11.64;118.99
65559;DHT22;52203;51.998;5.140;2024-02-26T02:03:15;11.60;118.99
65559;DHT22;52203;51.998;5.140;2024-02-26T02:05:41;11.67;118.99
65559;DHT22;52203;51.998;5.140;2024-02-26T02:08:11;11.67;118.99
65559;DHT22;52203;51.998;5.140;2024-02-26T02:10:38;11.60;118.99
65559;DHT22;52203;51.998;5.140;2024-02-26T02:13:04;11.64;118.99
65559;DHT22;52203;51.998;5.140;2024-02-26T02:15:29;11.60;118.99
65559;DHT22;52203;51.998;5.140;2024-02-26T02:17:55;11.63;118.99
65559;DHT22;52203;51.998;5.140;2024-02-26T02:20:47;11.68;118.99
65559;DHT22;52203;51.998;5.140;2024-02-26T02:23:12;11.60;118.99
65559;DHT22;52203;51.998;5.140;2024-02-26T02:25:39;11.58;118.99
65559;DHT22;52203;51.998;5.140;2024-02-26T02:28:05;11.64;118.99
65559;DHT22;52203;51.998;5.140;2024-02-26T02:30:31;11.57;118.99
65559;DHT22;52203;51.998;5.140;2024-02-26T02:32:58;11.61;118.99
65559;DHT22;52203;51.998;5.140;2024-02-26T02:35:24;11.63;118.99
65559;DHT22;52203;51.998;5.140;2024-02-26T02:37:53;11.60;118.99
65559;DHT22;52203;51.998;5.140;2024-02-26T02:40:19;11.64;118.99
65559;DHT22;52203;51.998;5.140;2024-02-26T02:42:44;11.59;118.99
65559;DHT22;52203;51.998;5.140;2024-02-26T02:45:13;11.63;118.99
65559;DHT22;52203;51.998;5.140;2024-02-26T02:47:38;11.57;118.99
65559;DHT22;52203;51.998;5.140;2024-02-26T02:50:04;11.58;118.99
65559;DHT22;52203;51.998;5.140;2024-02-26T02:52:30;11.62;118.99
65559;DHT22;52203;51.998;5.140;2024-02-26T02:54:58;11.64;118.99
65559;DHT22;52203;51.998;5.140;2024-02-26T02:57:24;11.60;118.99
65559;DHT22;52203;51.998;5.140;2024-02-26T02:59:49;11.58;118.99
65559;DHT22;52203;51.998;5.140;2024-02-26T03:02:15;11.61;118.99
65559;DHT22;52203;51.998;5.140;2024-02-26T03:04:40;11.69;118.99
65559;DHT22;52203;51.998;5.140;2024-02-26T03:07:08;11.60;118.99
65559;DHT22;52203;51.998;5.140;2024-02-26T03:09:33;11.61;118.99
65559;DHT22;52203;51.998;5.140;2024-02-26T03:11:59;11.55;118.99
65559;DHT22;52203;51.998;5.140;2024-02-26T03:14:25;11.58;118.99
65559;DHT22;52203;51.998;5.140;2024-02-26T03:16:54;11.58;118.99
65559;DHT22;52203;51.998;5.140;2024-02-26T03:19:20;11.58;118.99
65559;DHT22;52203;51.998;5.140;2024-02-26T03:21:45;11.59;118.99
65559;DHT22;52203;51.998;5.140;2024-02-26T03:24:14;11.63;118.99
65559;DHT22;52203;51.998;5.140;2024-02-26T03:26:39;11.59;118.99
65559;DHT22;52203;51.998;5.140;2024-02-26T03:29:05;11.56;118.99
65559;DHT22;52203;51.998;5.140;2024-02-26T03:31:31;11.56;118.99
65559;DHT22;52203;51.998;5.140;2024-02-26T03:33:57;11.59;118.99
65559;DHT22;52203;51.998;5.140;2024-02-26T03:36:22;11.63;118.99
65559;DHT22;52203;51.998;5.140;2024-02-26T03:38:48;11.54;118.99
65559;DHT22;52203;51.998;5.140;2024-02-26T03:41:14;11.51;118.99
65559;DHT22;52203;51.998;5.140;2024-02-26T03:43:39;11.51;118.99
65559;DHT22;52203;51.998;5.140;2024-02-26T03:46:08;11.53;118.99
65559;DHT22;52203;51.998;5.140;2024-02-26T03:48:35;11.56;118.99
65559;DHT22;52203;51.998;5.140;2024-02-26T03:51:01;11.54;118.99
65559;DHT22;52203;51.998;5.140;2024-02-26T03:53:26;11.58;118.99
65559;DHT22;52203;51.998;5.140;2024-02-26T03:55:53;11.57;118.99
65559;DHT22;52203;51.998;5.140;2024-02-26T03:58:20;11.55;118.99
65559;DHT22;52203;51.998;5.140;2024-02-26T04:00:46;11.57;118.99
65559;DHT22;52203;51.998;5.140;2024-02-26T04:03:13;11.48;118.99
65559;DHT22;52203;51.998;5.140;2024-02-26T04:05:39;11.55;118.99
65559;DHT22;52203;51.998;5.140;2024-02-26T04:08:05;11.49;118.99
65559;DHT22;52203;51.998;5.140;2024-02-26T04:10:33;11.48;118.99
65559;DHT22;52203;51.998;5.140;2024-02-26T04:13:00;11.43;118.99
65559;DHT22;52203;51.998;5.140;2024-02-26T04:15:26;11.48;118.99
65559;DHT22;52203;51.998;5.140;2024-02-26T04:17:51;11.53;118.99
65559;DHT22;52203;51.998;5.140;2024-02-26T04:20:17;11.44;118.99
65559;DHT22;52203;51.998;5.140;2024-02-26T04:22:43;11.53;118.99
65559;DHT22;52203;51.998;5.140;2024-02-26T04:25:09;11.47;118.99
65559;DHT22;52203;51.998;5.140;2024-02-26T04:27:35;11.48;118.99
65559;DHT22;52203;51.998;5.140;2024-02-26T04:30:00;11.46;118.99
65559;DHT22;52203;51.998;5.140;2024-02-26T04:32:26;11.51;118.99
65559;DHT22;52203;51.998;5.140;2024-02-26T04:34:51;11.52;118.99
65559;DHT22;52203;51.998;5.140;2024-02-26T04:37:17;11.52;118.99
65559;DHT22;52203;51.998;5.140;2024-02-26T04:39:42;11.52;118.99
65559;DHT22;52203;51.998;5.140;2024-02-26T04:42:08;11.49;118.99
65559;DHT22;52203;51.998;5.140;2024-02-26T04:44:33;11.49;118.99
65559;DHT22;52203;51.998;5.140;2024-02-26T04:46:59;11.49;118.99
65559;DHT22;52203;51.998;5.140;2024-02-26T04:49:27;11.45;118.99
65559;DHT22;52203;51.998;5.140;2024-02-26T04:51:52;11.55;118.99
65559;DHT22;52203;51.998;5.140;2024-02-26T04:54:19;11.49;118.99
65559;DHT22;52203;51.998;5.140;2024-02-26T04:56:44;11.44;118.99
65559;DHT22;52203;51.998;5.140;2024-02-26T04:59:10;11.49;118.99
65559;DHT22;52203;51.998;5.140;2024-02-26T05:01:36;11.51;118.99
65559;DHT22;52203;51.998;5.140;2024-02-26T05:04:02;11.48;118.99
65559;DHT22;52203;51.998;5.140;2024-02-26T05:06:28;11.49;118.99
65559;DHT22;52203;51.998;5.140;2024-02-26T05:08:54;11.46;118.99
65559;DHT22;52203;51.998;5.140;2024-02-26T05:11:20;11.43;118.99
65559;DHT22;52203;51.998;5.140;2024-02-26T05:13:45;11.47;118.99
65559;DHT22;52203;51.998;5.140;2024-02-26T05:16:11;11.49;118.99
65559;DHT22;52203;51.998;5.140;2024-02-26T05:18:36;11.47;118.99
65559;DHT22;52203;51.998;5.140;2024-02-26T05:21:05;11.47;118.99
65559;DHT22;52203;51.998;5.140;2024-02-26T05:23:30;11.44;118.99
65559;DHT22;52203;51.998;5.140;2024-02-26T05:25:56;11.52;118.99
65559;DHT22;52203;51.998;5.140;2024-02-26T05:28:21;11.46;118.99
65559;DHT22;52203;51.998;5.140;2024-02-26T05:30:47;11.42;118.99
65559;DHT22;52203;51.998;5.140;2024-02-26T05:33:12;11.45;118.99
65559;DHT22;52203;51.998;5.140;2024-02-26T05:35:38;11.41;118.99
65559;DHT22;52203;51.998;5.140;2024-02-26T05:38:05;11.48;118.99
65559;DHT22;52203;51.998;5.140;2024-02-26T05:40:31;11.46;118.99
65559;DHT22;52203;51.998;5.140;2024-02-26T05:42:56;11.45;118.99
65559;DHT22;52203;51.998;5.140;2024-02-26T05:45:22;11.48;118.99
65559;DHT22;52203;51.998;5.140;2024-02-26T05:47:47;11.43;118.99
65559;DHT22;52203;51.998;5.140;2024-02-26T05:50:15;11.40;118.99
65559;DHT22;52203;51.998;5.140;2024-02-26T05:52:40;11.44;118.99
65559;DHT22;52203;51.998;5.140;2024-02-26T05:55:06;11.54;118.99
65559;DHT22;52203;51.998;5.140;2024-02-26T05:57:35;11.45;118.99
65559;DHT22;52203;51.998;5.140;2024-02-26T06:00:01;11.55;118.99
65559;DHT22;52203;51.998;5.140;2024-02-26T06:02:29;11.41;118.99
65559;DHT22;52203;51.998;5.140;2024-02-26T06:04:55;11.41;118.99
65559;DHT22;52203;51.998;5.140;2024-02-26T06:07:20;11.43;118.99
65559;DHT22;52203;51.998;5.140;2024-02-26T06:09:46;11.48;118.99
65559;DHT22;52203;51.998;5.140;2024-02-26T06:12:11;11.51;118.99
65559;DHT22;52203;51.998;5.140;2024-02-26T06:14:37;11.47;118.99
65559;DHT22;52203;51.998;5.140;2024-02-26T06:17:02;11.37;118.99
65559;DHT22;52203;51.998;5.140;2024-02-26T06:19:28;11.45;118.99
65559;DHT22;52203;51.998;5.140;2024-02-26T06:21:54;11.49;118.99
65559;DHT22;52203;51.998;5.140;2024-02-26T06:24:19;11.45;118.99
65559;DHT22;52203;51.998;5.140;2024-02-26T06:26:47;11.41;118.99
65559;DHT22;52203;51.998;5.140;2024-02-26T06:29:13;11.43;118.99
65559;DHT22;52203;51.998;5.140;2024-02-26T06:31:38;11.37;118.99
65559;DHT22;52203;51.998;5.140;2024-02-26T06:34:04;11.45;118.99
65559;DHT22;52203;51.998;5.140;2024-02-26T06:36:30;11.43;118.99
65559;DHT22;52203;51.998;5.140;2024-02-26T06:38:57;11.40;118.99
65559;DHT22;52203;51.998;5.140;2024-02-26T06:41:23;11.39;118.99
65559;DHT22;52203;51.998;5.140;2024-02-26T06:43:53;11.49;118.99
65559;DHT22;52203;51.998;5.140;2024-02-26T06:46:19;11.46;118.99
65559;DHT22;52203;51.998;5.140;2024-02-26T06:48:47;11.43;118.99
65559;DHT22;52203;51.998;5.140;2024-02-26T06:51:16;11.49;118.99
65559;DHT22;52203;51.998;5.140;2024-02-26T06:53:44;11.43;118.99
65559;DHT22;52203;51.998;5.140;2024-02-26T06:56:10;11.42;118.99
65559;DHT22;52203;51.998;5.140;2024-02-26T06:58:35;11.44;118.99
65559;DHT22;52203;51.998;5.140;2024-02-26T07:01:01;11.41;118.99
65559;DHT22;52203;51.998;5.140;2024-02-26T07:03:26;11.38;118.99
65559;DHT22;52203;51.998;5.140;2024-02-26T07:05:52;11.45;118.99
65559;DHT22;52203;51.998;5.140;2024-02-26T07:08:18;11.42;118.99
65559;DHT22;52203;51.998;5.140;2024-02-26T07:10:43;11.47;118.99
65559;DHT22;52203;51.998;5.140;2024-02-26T07:13:09;11.44;118.99
65559;DHT22;52203;51.998;5.140;2024-02-26T07:15:34;11.41;118.99
65559;DHT22;52203;51.998;5.140;2024-02-26T07:18:00;11.41;118.99
65559;DHT22;52203;51.998;5.140;2024-02-26T07:20:31;11.49;118.99
65559;DHT22;52203;51.998;5.140;2024-02-26T07:22:56;11.47;118.99
65559;DHT22;52203;51.998;5.140;2024-02-26T07:25:22;11.44;118.99
65559;DHT22;52203;51.998;5.140;2024-02-26T07:27:49;11.42;118.99
65559;DHT22;52203;51.998;5.140;2024-02-26T07:30:15;11.47;118.99
65559;DHT22;52203;51.998;5.140;2024-02-26T07:32:41;11.38;118.99
65559;DHT22;52203;51.998;5.140;2024-02-26T07:35:09;11.48;118.99
65559;DHT22;52203;51.998;5.140;2024-02-26T07:37:35;11.49;118.99
65559;DHT22;52203;51.998;5.140;2024-02-26T07:40:00;11.53;118.99
65559;DHT22;52203;51.998;5.140;2024-02-26T07:42:26;11.52;118.99
65559;DHT22;52203;51.998;5.140;2024-02-26T07:44:51;11.54;118.99
65559;DHT22;52203;51.998;5.140;2024-02-26T07:47:17;11.53;118.99
65559;DHT22;52203;51.998;5.140;2024-02-26T07:49:43;11.52;118.99
65559;DHT22;52203;51.998;5.140;2024-02-26T07:52:08;11.52;118.99
65559;DHT22;52203;51.998;5.140;2024-02-26T07:54:34;11.52;118.99
65559;DHT22;52203;51.998;5.140;2024-02-26T07:56:59;11.58;118.99
65559;DHT22;52203;51.998;5.140;2024-02-26T07:59:24;11.56;118.99
65559;DHT22;52203;51.998;5.140;2024-02-26T08:01:50;12.06;118.99
65559;DHT22;52203;51.998;5.140;2024-02-26T08:04:16;12.29;118.99
65559;DHT22;52203;51.998;5.140;2024-02-26T08:06:41;12.33;118.99
65559;DHT22;52203;51.998;5.140;2024-02-26T08:09:08;12.37;118.99
65559;DHT22;52203;51.998;5.140;2024-02-26T08:11:33;12.36;118.99
65559;DHT22;52203;51.998;5.140;2024-02-26T08:13:59;12.37;118.99
65559;DHT22;52203;51.998;5.140;2024-02-26T08:16:24;12.41;118.99
65559;DHT22;52203;51.998;5.140;2024-02-26T08:18:50;12.38;118.99
65559;DHT22;52203;51.998;5.140;2024-02-26T08:21:15;12.40;118.99
65559;DHT22;52203;51.998;5.140;2024-02-26T08:23:42;12.40;118.99
65559;DHT22;52203;51.998;5.140;2024-02-26T08:26:08;12.40;118.99
65559;DHT22;52203;51.998;5.140;2024-02-26T08:28:36;12.38;118.99
65559;DHT22;52203;51.998;5.140;2024-02-26T08:31:01;12.41;118.99
65559;DHT22;52203;51.998;5.140;2024-02-26T08:33:27;12.40;118.99
65559;DHT22;52203;51.998;5.140;2024-02-26T08:35:52;12.38;118.99
65559;DHT22;52203;51.998;5.140;2024-02-26T08:38:18;12.49;118.99
65559;DHT22;52203;51.998;5.140;2024-02-26T08:40:43;12.48;118.99
65559;DHT22;52203;51.998;5.140;2024-02-26T08:43:08;12.49;118.99
65559;DHT22;52203;51.998;5.140;2024-02-26T08:45:34;12.51;118.99
65559;DHT22;52203;51.998;5.140;2024-02-26T08:48:00;12.49;118.99
65559;DHT22;52203;51.998;5.140;2024-02-26T08:50:25;12.49;118.99
65559;DHT22;52203;51.998;5.140;2024-02-26T08:52:53;12.49;118.99
65559;DHT22;52203;51.998;5.140;2024-02-26T08:55:19;12.27;118.99
65559;DHT22;52203;51.998;5.140;2024-02-26T08:57:44;12.11;118.99
65559;DHT22;52203;51.998;5.140;2024-02-26T09:00:10;12.05;118.99
65559;DHT22;52203;51.998;5.140;2024-02-26T09:02:36;12.08;118.99
65559;DHT22;52203;51.998;5.140;2024-02-26T09:05:04;12.05;118.99
65559;DHT22;52203;51.998;5.140;2024-02-26T09:07:29;12.01;118.99
65559;DHT22;52203;51.998;5.140;2024-02-26T09:09:55;12.02;118.99
65559;DHT22;52203;51.998;5.140;2024-02-26T09:12:21;12.05;118.99
65559;DHT22;52203;51.998;5.140;2024-02-26T09:14:46;12.07;118.99
65559;DHT22;52203;51.998;5.140;2024-02-26T09:17:12;12.01;118.99
65559;DHT22;52203;51.998;5.140;2024-02-26T09:19:37;11.96;118.99
65559;DHT22;52203;51.998;5.140;2024-02-26T09:22:03;11.93;118.99
65559;DHT22;52203;51.998;5.140;2024-02-26T09:24:28;12.01;118.99
65559;DHT22;52203;51.998;5.140;2024-02-26T09:26:54;12.00;118.99
65559;DHT22;52203;51.998;5.140;2024-02-26T09:29:19;11.96;118.99
65559;DHT22;52203;51.998;5.140;2024-02-26T09:31:45;11.97;118.99
65559;DHT22;52203;51.998;5.140;2024-02-26T09:34:13;12.02;118.99
65559;DHT22;52203;51.998;5.140;2024-02-26T09:36:38;11.97;118.99
65559;DHT22;52203;51.998;5.140;2024-02-26T09:39:04;11.97;118.99
65559;DHT22;52203;51.998;5.140;2024-02-26T09:41:30;11.93;118.99
65559;DHT22;52203;51.998;5.140;2024-02-26T09:43:56;12.03;118.99
65559;DHT22;52203;51.998;5.140;2024-02-26T09:46:23;12.01;118.99
65559;DHT22;52203;51.998;5.140;2024-02-26T09:48:48;11.98;118.99
65559;DHT22;52203;51.998;5.140;2024-02-26T09:51:14;11.97;118.99
65559;DHT22;52203;51.998;5.140;2024-02-26T09:53:40;11.96;118.99
65559;DHT22;52203;51.998;5.140;2024-02-26T09:56:08;11.94;118.99
65559;DHT22;52203;51.998;5.140;2024-02-26T09:58:33;11.94;118.99
65559;DHT22;52203;51.998;5.140;2024-02-26T10:01:00;11.93;118.99
65559;DHT22;52203;51.998;5.140;2024-02-26T10:03:31;11.93;118.99
65559;DHT22;52203;51.998;5.140;2024-02-26T10:05:58;11.90;118.99
65559;DHT22;52203;51.998;5.140;2024-02-26T10:08:24;11.93;118.99
65559;DHT22;52203;51.998;5.140;2024-02-26T10:10:50;11.92;118.99
65559;DHT22;52203;51.998;5.140;2024-02-26T10:13:16;11.94;118.99
65559;DHT22;52203;51.998;5.140;2024-02-26T10:15:41;11.94;118.99
65559;DHT22;52203;51.998;5.140;2024-02-26T10:18:06;11.97;118.99
65559;DHT22;52203;51.998;5.140;2024-02-26T10:20:32;12.05;118.99
65559;DHT22;52203;51.998;5.140;2024-02-26T10:22:58;11.93;118.99
65559;DHT22;52203;51.998;5.140;2024-02-26T10:25:23;11.96;118.99
65559;DHT22;52203;51.998;5.140;2024-02-26T10:27:49;11.93;118.99
65559;DHT22;52203;51.998;5.140;2024-02-26T10:32:46;11.93;118.99
65559;DHT22;52203;51.998;5.140;2024-02-26T10:35:12;11.90;118.99
65559;DHT22;52203;51.998;5.140;2024-02-26T10:37:38;11.93;118.99
65559;DHT22;52203;51.998;5.140;2024-02-26T10:40:04;11.89;118.99
65559;DHT22;52203;51.998;5.140;2024-02-26T10:42:30;11.94;118.99
65559;DHT22;52203;51.998;5.140;2024-02-26T10:44:55;11.92;118.99
65559;DHT22;52203;51.998;5.140;2024-02-26T10:47:23;11.91;118.99
65559;DHT22;52203;51.998;5.140;2024-02-26T10:49:49;11.90;118.99
65559;DHT22;52203;51.998;5.140;2024-02-26T10:52:15;11.98;118.99
65559;DHT22;52203;51.998;5.140;2024-02-26T10:54:42;11.93;118.99
65559;DHT22;52203;51.998;5.140;2024-02-26T10:57:11;11.90;118.99
65559;DHT22;52203;51.998;5.140;2024-02-26T10:59:37;11.91;118.99
65559;DHT22;52203;51.998;5.140;2024-02-26T11:02:03;11.93;118.99
65559;DHT22;52203;51.998;5.140;2024-02-26T11:04:28;11.92;118.99
65559;DHT22;52203;51.998;5.140;2024-02-26T11:06:56;11.91;118.99
65559;DHT22;52203;51.998;5.140;2024-02-26T11:09:22;11.91;118.99
65559;DHT22;52203;51.998;5.140;2024-02-26T11:11:47;11.91;118.99
65559;DHT22;52203;51.998;5.140;2024-02-26T11:14:13;11.93;118.99
65559;DHT22;52203;51.998;5.140;2024-02-26T11:16:39;12.07;118.99
65559;DHT22;52203;51.998;5.140;2024-02-26T11:19:06;12.03;118.99
65559;DHT22;52203;51.998;5.140;2024-02-26T11:21:32;12.06;118.99
65559;DHT22;52203;51.998;5.140;2024-02-26T11:24:14;11.93;118.99
65559;DHT22;52203;51.998;5.140;2024-02-26T11:26:42;11.92;118.99
65559;DHT22;52203;51.998;5.140;2024-02-26T11:29:10;11.93;118.99
65559;DHT22;52203;51.998;5.140;2024-02-26T11:31:37;11.90;118.99
65559;DHT22;52203;51.998;5.140;2024-02-26T11:34:03;11.91;118.99
65559;DHT22;52203;51.998;5.140;2024-02-26T11:36:28;11.92;118.99
65559;DHT22;52203;51.998;5.140;2024-02-26T11:38:55;11.91;118.99
65559;DHT22;52203;51.998;5.140;2024-02-26T11:41:20;11.97;118.99
65559;DHT22;52203;51.998;5.140;2024-02-26T11:43:49;11.99;118.99
65559;DHT22;52203;51.998;5.140;2024-02-26T11:46:24;11.97;118.99
65559;DHT22;52203;51.998;5.140;2024-02-26T11:48:50;12.02;118.99
65559;DHT22;52203;51.998;5.140;2024-02-26T11:51:15;12.04;118.99
65559;DHT22;52203;51.998;5.140;2024-02-26T11:53:48;11.94;118.99
65559;DHT22;52203;51.998;5.140;2024-02-26T11:56:19;11.94;118.99
65559;DHT22;52203;51.998;5.140;2024-02-26T11:58:45;11.93;118.99
65559;DHT22;52203;51.998;5.140;2024-02-26T12:03:55;11.97;118.99
65559;DHT22;52203;51.998;5.140;2024-02-26T12:06:21;12.02;118.99
65559;DHT22;52203;51.998;5.140;2024-02-26T12:08:47;12.04;118.99
65559;DHT22;52203;51.998;5.140;2024-02-26T12:11:15;12.10;118.99
65559;DHT22;52203;51.998;5.140;2024-02-26T12:13:45;12.14;118.99
65559;DHT22;52203;51.998;5.140;2024-02-26T12:16:12;12.17;118.99
65559;DHT22;52203;51.998;5.140;2024-02-26T12:18:37;12.23;118.99
65559;DHT22;52203;51.998;5.140;2024-02-26T12:21:06;12.33;118.99
65559;DHT22;52203;51.998;5.140;2024-02-26T12:23:31;12.43;118.99
65559;DHT22;52203;51.998;5.140;2024-02-26T12:26:00;12.52;118.99
65559;DHT22;52203;51.998;5.140;2024-02-26T12:28:28;12.61;118.99
65559;DHT22;52203;51.998;5.140;2024-02-26T12:30:54;12.74;118.99
65559;DHT22;52203;51.998;5.140;2024-02-26T12:33:20;12.85;118.99
65559;DHT22;52203;51.998;5.140;2024-02-26T12:35:45;12.93;118.99
65559;DHT22;52203;51.998;5.140;2024-02-26T12:38:14;13.02;118.99
65559;DHT22;52203;51.998;5.140;2024-02-26T12:40:39;13.02;118.99
65559;DHT22;52203;51.998;5.140;2024-02-26T12:43:05;13.07;118.99
65559;DHT22;52203;51.998;5.140;2024-02-26T12:45:32;13.11;118.99
65559;DHT22;52203;51.998;5.140;2024-02-26T12:47:58;13.09;118.99
65559;DHT22;52203;51.998;5.140;2024-02-26T12:50:24;13.07;118.99
65559;DHT22;52203;51.998;5.140;2024-02-26T12:52:50;13.05;118.99
65559;DHT22;52203;51.998;5.140;2024-02-26T12:55:19;13.08;118.99
65559;DHT22;52203;51.998;5.140;2024-02-26T12:57:45;13.08;118.99
65559;DHT22;52203;51.998;5.140;2024-02-26T13:00:21;13.02;118.99
65559;DHT22;52203;51.998;5.140;2024-02-26T13:02:47;13.04;118.99
65559;DHT22;52203;51.998;5.140;2024-02-26T13:05:14;12.97;118.99
65559;DHT22;52203;51.998;5.140;2024-02-26T13:07:41;12.97;118.99
65559;DHT22;52203;51.998;5.140;2024-02-26T13:10:06;12.94;118.99
65559;DHT22;52203;51.998;5.140;2024-02-26T13:12:32;12.91;118.99
65559;DHT22;52203;51.998;5.140;2024-02-26T13:14:58;12.89;118.99
65559;DHT22;52203;51.998;5.140;2024-02-26T13:17:24;13.04;118.99
65559;DHT22;52203;51.998;5.140;2024-02-26T13:19:53;13.04;118.99
65559;DHT22;52203;51.998;5.140;2024-02-26T13:22:20;12.92;118.99
65559;DHT22;52203;51.998;5.140;2024-02-26T13:24:52;12.86;118.99
65559;DHT22;52203;51.998;5.140;2024-02-26T13:27:22;12.81;118.99
65559;DHT22;52203;51.998;5.140;2024-02-26T13:29:47;12.77;118.99
65559;DHT22;52203;51.998;5.140;2024-02-26T13:32:13;12.77;118.99
65559;DHT22;52203;51.998;5.140;2024-02-26T13:34:38;12.75;118.99
65559;DHT22;52203;51.998;5.140;2024-02-26T13:37:03;12.78;118.99
65559;DHT22;52203;51.998;5.140;2024-02-26T13:39:30;12.76;118.99
65559;DHT22;52203;51.998;5.140;2024-02-26T13:41:58;12.74;118.99
65559;DHT22;52203;51.998;5.140;2024-02-26T13:44:23;12.73;118.99
65559;DHT22;52203;51.998;5.140;2024-02-26T13:46:49;12.71;118.99
65559;DHT22;52203;51.998;5.140;2024-02-26T13:49:15;12.70;118.99
65559;DHT22;52203;51.998;5.140;2024-02-26T13:51:41;12.70;118.99
65559;DHT22;52203;51.998;5.140;2024-02-26T13:54:06;12.65;118.99
65559;DHT22;52203;51.998;5.140;2024-02-26T13:56:32;12.69;118.99
65559;DHT22;52203;51.998;5.140;2024-02-26T13:58:58;12.75;118.99
65559;DHT22;52203;51.998;5.140;2024-02-26T14:01:23;12.75;118.99
65559;DHT22;52203;51.998;5.140;2024-02-26T14:03:49;12.77;118.99
65559;DHT22;52203;51.998;5.140;2024-02-26T14:06:14;12.75;118.99
65559;DHT22;52203;51.998;5.140;2024-02-26T14:08:40;12.72;118.99
65559;DHT22;52203;51.998;5.140;2024-02-26T14:11:05;12.74;118.99
65559;DHT22;52203;51.998;5.140;2024-02-26T14:13:31;12.74;118.99
65559;DHT22;52203;51.998;5.140;2024-02-26T14:15:56;12.72;118.99
65559;DHT22;52203;51.998;5.140;2024-02-26T14:18:22;12.73;118.99
65559;DHT22;52203;51.998;5.140;2024-02-26T14:20:49;12.71;118.99
65559;DHT22;52203;51.998;5.140;2024-02-26T14:23:15;12.72;118.99
65559;DHT22;52203;51.998;5.140;2024-02-26T14:25:40;12.72;118.99
65559;DHT22;52203;51.998;5.140;2024-02-26T14:28:06;12.72;118.99
65559;DHT22;52203;51.998;5.140;2024-02-26T14:30:31;12.77;118.99
65559;DHT22;52203;51.998;5.140;2024-02-26T14:32:57;12.75;118.99
65559;DHT22;52203;51.998;5.140;2024-02-26T14:35:23;12.72;118.99
65559;DHT22;52203;51.998;5.140;2024-02-26T14:37:48;12.87;118.99
65559;DHT22;52203;51.998;5.140;2024-02-26T14:40:15;12.90;118.99
65559;DHT22;52203;51.998;5.140;2024-02-26T14:42:41;12.82;118.99
65559;DHT22;52203;51.998;5.140;2024-02-26T14:45:06;12.75;118.99
65559;DHT22;52203;51.998;5.140;2024-02-26T14:47:34;12.76;118.99
65559;DHT22;52203;51.998;5.140;2024-02-26T14:50:00;12.78;118.99
65559;DHT22;52203;51.998;5.140;2024-02-26T14:52:25;12.74;118.99
65559;DHT22;52203;51.998;5.140;2024-02-26T14:54:50;12.74;118.99
65559;DHT22;52203;51.998;5.140;2024-02-26T14:57:16;12.72;118.99
65559;DHT22;52203;51.998;5.140;2024-02-26T14:59:42;12.87;118.99
65559;DHT22;52203;51.998;5.140;2024-02-26T15:02:09;12.77;118.99
65559;DHT22;52203;51.998;5.140;2024-02-26T15:04:35;12.74;118.99
65559;DHT22;52203;51.998;5.140;2024-02-26T15:07:00;12.73;118.99
65559;DHT22;52203;51.998;5.140;2024-02-26T15:09:26;12.74;118.99
65559;DHT22;52203;51.998;5.140;2024-02-26T15:11:51;12.76;118.99
65559;DHT22;52203;51.998;5.140;2024-02-26T15:14:19;12.72;118.99